sensor_id;sensor_type;location;lat;lon;timestamp;P1;durP1;ratioP1;P2;durP2;ratioP2
67712;SDS011;67640;55.784;49.138;2023-02-10T00:01:17;13.40;;;4.20;;
67712;SDS011;67640;55.784;49.138;2023-02-10T00:06:37;11.05;;;3.80;;
67712;SDS011;67640;55.784;49.138;2023-02-10T00:11:56;11.53;;;4.08;;
67712;SDS011;67640;55.784;49.138;2023-02-10T00:17:01;13.87;;;4.60;;
67712;SDS011;67640;55.784;49.138;2023-02-10T00:22:18;17.30;;;4.35;;
67712;SDS011;67640;55.784;49.138;2023-02-10T00:27:23;10.85;;;3.80;;
67712;SDS011;67640;55.784;49.138;2023-02-10T00:32:42;15.03;;;4.70;;
67712;SDS011;67640;55.784;49.138;2023-02-10T00:38:01;11.93;;;3.80;;
67712;SDS011;67640;55.784;49.138;2023-02-10T00:43:20;12.05;;;4.35;;
67712;SDS011;67640;55.784;49.138;2023-02-10T00:48:39;12.07;;;4.17;;
67712;SDS011;67640;55.784;49.138;2023-02-10T00:53:44;10.00;;;3.75;;
67712;SDS011;67640;55.784;49.138;2023-02-10T00:58:50;9.90;;;3.93;;
67712;SDS011;67640;55.784;49.138;2023-02-10T01:04:08;12.57;;;3.33;;
67712;SDS011;67640;55.784;49.138;2023-02-10T01:09:13;9.65;;;4.00;;
67712;SDS011;67640;55.784;49.138;2023-02-10T01:14:18;9.90;;;4.20;;
67712;SDS011;67640;55.784;49.138;2023-02-10T01:19:37;9.70;;;3.52;;
67712;SDS011;67640;55.784;49.138;2023-02-10T01:25:00;9.98;;;3.52;;
67712;SDS011;67640;55.784;49.138;2023-02-10T01:30:07;10.70;;;3.47;;
67712;SDS011;67640;55.784;49.138;2023-02-10T01:35:30;10.50;;;3.57;;
67712;SDS011;67640;55.784;49.138;2023-02-10T01:40:35;13.48;;;4.10;;
67712;SDS011;67640;55.784;49.138;2023-02-10T01:45:54;10.72;;;3.42;;
67712;SDS011;67640;55.784;49.138;2023-02-10T01:51:19;13.35;;;4.17;;
67712;SDS011;67640;55.784;49.138;2023-02-10T01:56:24;11.12;;;3.55;;
67712;SDS011;67640;55.784;49.138;2023-02-10T02:01:29;11.53;;;3.60;;
67712;SDS011;67640;55.784;49.138;2023-02-10T02:06:34;13.53;;;4.40;;
67712;SDS011;67640;55.784;49.138;2023-02-10T02:39:40;10.05;;;3.90;;
67712;SDS011;67640;55.784;49.138;2023-02-10T03:06:48;11.63;;;3.87;;
67712;SDS011;67640;55.784;49.138;2023-02-10T03:11:54;12.35;;;3.70;;
67712;SDS011;67640;55.784;49.138;2023-02-10T03:16:59;11.38;;;3.92;;
67712;SDS011;67640;55.784;49.138;2023-02-10T03:22:04;12.20;;;3.80;;
67712;SDS011;67640;55.784;49.138;2023-02-10T03:27:10;11.63;;;4.30;;
67712;SDS011;67640;55.784;49.138;2023-02-10T03:32:29;9.58;;;3.52;;
67712;SDS011;67640;55.784;49.138;2023-02-10T03:37:48;12.82;;;3.77;;
67712;SDS011;67640;55.784;49.138;2023-02-10T03:43:08;12.73;;;3.83;;
67712;SDS011;67640;55.784;49.138;2023-02-10T03:48:41;11.80;;;3.67;;
67712;SDS011;67640;55.784;49.138;2023-02-10T03:53:46;12.47;;;4.03;;
67712;SDS011;67640;55.784;49.138;2023-02-10T03:59:06;10.28;;;3.62;;
67712;SDS011;67640;55.784;49.138;2023-02-10T04:04:11;13.50;;;4.30;;
67712;SDS011;67640;55.784;49.138;2023-02-10T04:09:15;10.40;;;3.80;;
67712;SDS011;67640;55.784;49.138;2023-02-10T04:14:52;11.22;;;3.58;;
67712;SDS011;67640;55.784;49.138;2023-02-10T04:19:57;12.23;;;3.77;;
67712;SDS011;67640;55.784;49.138;2023-02-10T04:25:15;13.53;;;4.20;;
67712;SDS011;67640;55.784;49.138;2023-02-10T04:30:20;13.22;;;4.37;;
67712;SDS011;67640;55.784;49.138;2023-02-10T04:35:39;9.45;;;3.27;;
67712;SDS011;67640;55.784;49.138;2023-02-10T04:40:45;9.17;;;3.13;;
67712;SDS011;67640;55.784;49.138;2023-02-10T04:46:04;12.35;;;4.12;;
67712;SDS011;67640;55.784;49.138;2023-02-10T04:51:23;10.90;;;3.40;;
67712;SDS011;67640;55.784;49.138;2023-02-10T04:56:28;10.13;;;3.40;;
67712;SDS011;67640;55.784;49.138;2023-02-10T05:01:47;10.32;;;2.95;;
67712;SDS011;67640;55.784;49.138;2023-02-10T05:06:52;12.80;;;3.87;;
67712;SDS011;67640;55.784;49.138;2023-02-10T05:12:10;10.75;;;3.90;;
67712;SDS011;67640;55.784;49.138;2023-02-10T05:17:16;11.33;;;4.03;;
67712;SDS011;67640;55.784;49.138;2023-02-10T05:22:36;11.13;;;3.83;;
67712;SDS011;67640;55.784;49.138;2023-02-10T05:27:40;9.28;;;3.22;;
67712;SDS011;67640;55.784;49.138;2023-02-10T05:32:45;11.97;;;4.33;;
67712;SDS011;67640;55.784;49.138;2023-02-10T05:38:04;12.05;;;3.90;;
67712;SDS011;67640;55.784;49.138;2023-02-10T05:43:23;12.95;;;4.25;;
67712;SDS011;67640;55.784;49.138;2023-02-10T05:48:43;17.40;;;4.40;;
67712;SDS011;67640;55.784;49.138;2023-02-10T05:54:02;15.30;;;4.75;;
67712;SDS011;67640;55.784;49.138;2023-02-10T05:59:08;15.50;;;4.20;;
67712;SDS011;67640;55.784;49.138;2023-02-10T06:04:27;15.27;;;4.27;;
67712;SDS011;67640;55.784;49.138;2023-02-10T06:09:32;19.92;;;5.60;;
67712;SDS011;67640;55.784;49.138;2023-02-10T06:14:50;17.25;;;5.25;;
67712;SDS011;67640;55.784;49.138;2023-02-10T06:19:55;14.60;;;5.47;;
67712;SDS011;67640;55.784;49.138;2023-02-10T06:25:00;15.13;;;4.72;;
67712;SDS011;67640;55.784;49.138;2023-02-10T06:30:07;16.65;;;5.33;;
67712;SDS011;67640;55.784;49.138;2023-02-10T06:35:36;17.75;;;5.20;;
67712;SDS011;67640;55.784;49.138;2023-02-10T06:40:42;17.10;;;5.73;;
67712;SDS011;67640;55.784;49.138;2023-02-10T06:45:48;19.15;;;5.95;;
67712;SDS011;67640;55.784;49.138;2023-02-10T06:51:07;17.60;;;6.13;;
67712;SDS011;67640;55.784;49.138;2023-02-10T06:56:12;15.28;;;4.95;;
67712;SDS011;67640;55.784;49.138;2023-02-10T07:01:31;18.50;;;6.03;;
67712;SDS011;67640;55.784;49.138;2023-02-10T07:06:48;19.62;;;5.65;;
67712;SDS011;67640;55.784;49.138;2023-02-10T07:11:53;18.80;;;6.53;;
67712;SDS011;67640;55.784;49.138;2023-02-10T07:16:59;20.77;;;6.12;;
67712;SDS011;67640;55.784;49.138;2023-02-10T07:22:18;17.83;;;6.37;;
67712;SDS011;67640;55.784;49.138;2023-02-10T07:27:37;19.23;;;5.37;;
67712;SDS011;67640;55.784;49.138;2023-02-10T07:32:42;16.77;;;5.90;;
67712;SDS011;67640;55.784;49.138;2023-02-10T07:38:07;15.23;;;4.93;;
67712;SDS011;67640;55.784;49.138;2023-02-10T07:43:12;17.45;;;5.97;;
67712;SDS011;67640;55.784;49.138;2023-02-10T07:48:31;21.02;;;6.22;;
67712;SDS011;67640;55.784;49.138;2023-02-10T07:53:37;14.13;;;5.13;;
67712;SDS011;67640;55.784;49.138;2023-02-10T07:58:56;18.42;;;6.47;;
67712;SDS011;67640;55.784;49.138;2023-02-10T08:04:15;17.03;;;5.80;;
67712;SDS011;67640;55.784;49.138;2023-02-10T08:09:20;15.32;;;4.67;;
67712;SDS011;67640;55.784;49.138;2023-02-10T08:14:38;14.15;;;5.53;;
67712;SDS011;67640;55.784;49.138;2023-02-10T08:19:44;13.88;;;4.78;;
67712;SDS011;67640;55.784;49.138;2023-02-10T08:24:49;14.60;;;4.95;;
67712;SDS011;67640;55.784;49.138;2023-02-10T08:30:07;15.53;;;4.97;;
67712;SDS011;67640;55.784;49.138;2023-02-10T08:35:12;16.12;;;5.53;;
67712;SDS011;67640;55.784;49.138;2023-02-10T08:40:18;18.60;;;6.70;;
67712;SDS011;67640;55.784;49.138;2023-02-10T08:45:37;16.67;;;5.62;;
67712;SDS011;67640;55.784;49.138;2023-02-10T08:51:11;16.32;;;4.95;;
67712;SDS011;67640;55.784;49.138;2023-02-10T08:56:17;17.37;;;5.13;;
67712;SDS011;67640;55.784;49.138;2023-02-10T09:01:37;21.12;;;5.45;;
67712;SDS011;67640;55.784;49.138;2023-02-10T09:06:43;17.55;;;5.78;;
67712;SDS011;67640;55.784;49.138;2023-02-10T09:12:00;10.60;;;4.23;;
67712;SDS011;67640;55.784;49.138;2023-02-10T09:17:06;18.10;;;5.00;;
67712;SDS011;67640;55.784;49.138;2023-02-10T09:22:12;19.12;;;6.03;;
67712;SDS011;67640;55.784;49.138;2023-02-10T09:27:31;20.77;;;5.53;;
67712;SDS011;67640;55.784;49.138;2023-02-10T09:32:50;17.62;;;5.62;;
67712;SDS011;67640;55.784;49.138;2023-02-10T09:38:10;33.67;;;10.43;;
67712;SDS011;67640;55.784;49.138;2023-02-10T09:54:32;21.40;;;7.05;;
67712;SDS011;67640;55.784;49.138;2023-02-10T09:59:37;22.02;;;7.08;;
67712;SDS011;67640;55.784;49.138;2023-02-10T10:04:43;18.52;;;5.80;;
67712;SDS011;67640;55.784;49.138;2023-02-10T10:10:04;17.00;;;5.28;;
67712;SDS011;67640;55.784;49.138;2023-02-10T10:37:19;12.68;;;4.28;;
67712;SDS011;67640;55.784;49.138;2023-02-10T10:58:52;16.50;;;5.17;;
67712;SDS011;67640;55.784;49.138;2023-02-10T11:04:12;18.35;;;5.97;;
67712;SDS011;67640;55.784;49.138;2023-02-10T11:09:32;15.08;;;4.45;;
67712;SDS011;67640;55.784;49.138;2023-02-10T11:14:51;18.98;;;6.58;;
67712;SDS011;67640;55.784;49.138;2023-02-10T11:19:59;16.35;;;5.33;;
67712;SDS011;67640;55.784;49.138;2023-02-10T11:35:49;28.45;;;9.45;;
67712;SDS011;67640;55.784;49.138;2023-02-10T11:41:10;18.80;;;6.93;;
67712;SDS011;67640;55.784;49.138;2023-02-10T11:46:29;19.70;;;5.27;;
67712;SDS011;67640;55.784;49.138;2023-02-10T11:51:34;19.10;;;5.75;;
67712;SDS011;67640;55.784;49.138;2023-02-10T11:56:42;19.20;;;5.45;;
67712;SDS011;67640;55.784;49.138;2023-02-10T12:57:05;31.73;;;9.18;;
67712;SDS011;67640;55.784;49.138;2023-02-10T13:07:53;25.40;;;7.50;;
67712;SDS011;67640;55.784;49.138;2023-02-10T13:13:57;20.35;;;6.95;;
67712;SDS011;67640;55.784;49.138;2023-02-10T13:35:32;20.12;;;5.50;;
67712;SDS011;67640;55.784;49.138;2023-02-10T13:51:37;11.60;;;3.75;;
67712;SDS011;67640;55.784;49.138;2023-02-10T13:56:51;16.60;;;4.72;;
67712;SDS011;67640;55.784;49.138;2023-02-10T14:02:11;13.28;;;4.03;;
67712;SDS011;67640;55.784;49.138;2023-02-10T14:18:28;17.60;;;5.53;;
67712;SDS011;67640;55.784;49.138;2023-02-10T14:23:37;16.27;;;5.35;;
67712;SDS011;67640;55.784;49.138;2023-02-10T14:28:42;10.82;;;3.37;;
67712;SDS011;67640;55.784;49.138;2023-02-10T14:39:39;9.15;;;2.90;;
67712;SDS011;67640;55.784;49.138;2023-02-10T15:06:48;18.98;;;5.80;;
67712;SDS011;67640;55.784;49.138;2023-02-10T15:11:54;19.12;;;6.05;;
67712;SDS011;67640;55.784;49.138;2023-02-10T15:17:20;14.28;;;4.58;;
67712;SDS011;67640;55.784;49.138;2023-02-10T15:22:41;13.53;;;3.65;;
67712;SDS011;67640;55.784;49.138;2023-02-10T15:49:48;18.67;;;5.60;;
67712;SDS011;67640;55.784;49.138;2023-02-10T15:55:26;16.93;;;5.55;;
67712;SDS011;67640;55.784;49.138;2023-02-10T16:05:40;11.03;;;4.67;;
67712;SDS011;67640;55.784;49.138;2023-02-10T16:10:45;13.83;;;5.25;;
67712;SDS011;67640;55.784;49.138;2023-02-10T16:21:55;16.77;;;3.93;;
67712;SDS011;67640;55.784;49.138;2023-02-10T16:27:39;8.50;;;3.17;;
67712;SDS011;67640;55.784;49.138;2023-02-10T16:32:58;13.33;;;3.13;;
67712;SDS011;67640;55.784;49.138;2023-02-10T16:38:03;14.10;;;4.37;;
67712;SDS011;67640;55.784;49.138;2023-02-10T16:43:22;13.25;;;4.10;;
67712;SDS011;67640;55.784;49.138;2023-02-10T16:48:39;9.25;;;3.17;;
67712;SDS011;67640;55.784;49.138;2023-02-10T16:53:45;10.88;;;3.25;;
67712;SDS011;67640;55.784;49.138;2023-02-10T16:59:03;13.00;;;3.67;;
67712;SDS011;67640;55.784;49.138;2023-02-10T17:04:09;10.53;;;2.92;;
67712;SDS011;67640;55.784;49.138;2023-02-10T17:09:15;17.67;;;5.03;;
67712;SDS011;67640;55.784;49.138;2023-02-10T17:14:32;18.87;;;6.65;;
67712;SDS011;67640;55.784;49.138;2023-02-10T17:19:51;25.97;;;7.23;;
67712;SDS011;67640;55.784;49.138;2023-02-10T17:25:11;25.75;;;7.90;;
67712;SDS011;67640;55.784;49.138;2023-02-10T17:30:16;23.32;;;6.92;;
67712;SDS011;67640;55.784;49.138;2023-02-10T17:35:35;17.60;;;5.97;;
67712;SDS011;67640;55.784;49.138;2023-02-10T17:46:20;23.38;;;8.08;;
67712;SDS011;67640;55.784;49.138;2023-02-10T17:51:39;18.63;;;6.00;;
67712;SDS011;67640;55.784;49.138;2023-02-10T17:56:56;21.30;;;6.27;;
67712;SDS011;67640;55.784;49.138;2023-02-10T18:02:02;16.02;;;5.97;;
67712;SDS011;67640;55.784;49.138;2023-02-10T18:07:08;18.10;;;4.83;;
67712;SDS011;67640;55.784;49.138;2023-02-10T18:12:13;19.48;;;6.62;;
67712;SDS011;67640;55.784;49.138;2023-02-10T18:17:32;16.93;;;5.28;;
67712;SDS011;67640;55.784;49.138;2023-02-10T18:22:59;18.12;;;5.25;;
67712;SDS011;67640;55.784;49.138;2023-02-10T18:28:05;21.77;;;6.22;;
67712;SDS011;67640;55.784;49.138;2023-02-10T18:33:24;16.27;;;5.67;;
67712;SDS011;67640;55.784;49.138;2023-02-10T18:38:43;18.60;;;5.30;;
67712;SDS011;67640;55.784;49.138;2023-02-10T18:44:02;17.32;;;5.95;;
67712;SDS011;67640;55.784;49.138;2023-02-10T18:49:21;14.73;;;4.08;;
67712;SDS011;67640;55.784;49.138;2023-02-10T18:54:27;15.00;;;4.50;;
67712;SDS011;67640;55.784;49.138;2023-02-10T18:59:32;14.23;;;4.30;;
67712;SDS011;67640;55.784;49.138;2023-02-10T19:04:49;23.73;;;6.47;;
67712;SDS011;67640;55.784;49.138;2023-02-10T19:09:55;21.13;;;7.97;;
67712;SDS011;67640;55.784;49.138;2023-02-10T19:15:01;21.73;;;6.25;;
67712;SDS011;67640;55.784;49.138;2023-02-10T19:20:20;17.02;;;6.20;;
67712;SDS011;67640;55.784;49.138;2023-02-10T19:25:25;25.87;;;8.10;;
67712;SDS011;67640;55.784;49.138;2023-02-10T19:30:42;18.70;;;6.53;;
67712;SDS011;67640;55.784;49.138;2023-02-10T19:35:47;14.33;;;4.17;;
67712;SDS011;67640;55.784;49.138;2023-02-10T19:46:20;14.35;;;4.62;;
67712;SDS011;67640;55.784;49.138;2023-02-10T19:51:48;15.15;;;4.53;;
67712;SDS011;67640;55.784;49.138;2023-02-10T19:56:53;15.58;;;4.58;;
67712;SDS011;67640;55.784;49.138;2023-02-10T20:02:12;19.00;;;4.47;;
67712;SDS011;67640;55.784;49.138;2023-02-10T20:07:31;20.68;;;6.10;;
67712;SDS011;67640;55.784;49.138;2023-02-10T20:12:50;20.30;;;6.77;;
67712;SDS011;67640;55.784;49.138;2023-02-10T20:18:09;16.23;;;5.10;;
67712;SDS011;67640;55.784;49.138;2023-02-10T20:23:14;13.22;;;4.50;;
67712;SDS011;67640;55.784;49.138;2023-02-10T20:28:19;14.60;;;4.67;;
67712;SDS011;67640;55.784;49.138;2023-02-10T20:33:36;14.35;;;4.17;;
67712;SDS011;67640;55.784;49.138;2023-02-10T20:38:43;19.80;;;5.55;;
67712;SDS011;67640;55.784;49.138;2023-02-10T20:43:49;15.47;;;3.87;;
67712;SDS011;67640;55.784;49.138;2023-02-10T20:49:08;14.80;;;4.40;;
67712;SDS011;67640;55.784;49.138;2023-02-10T20:54:27;14.27;;;4.10;;
67712;SDS011;67640;55.784;49.138;2023-02-10T20:59:47;17.30;;;4.90;;
67712;SDS011;67640;55.784;49.138;2023-02-10T21:04:52;15.72;;;4.80;;
67712;SDS011;67640;55.784;49.138;2023-02-10T21:09:58;16.27;;;5.30;;
67712;SDS011;67640;55.784;49.138;2023-02-10T21:15:17;12.58;;;4.83;;
67712;SDS011;67640;55.784;49.138;2023-02-10T21:20:36;20.68;;;5.35;;
67712;SDS011;67640;55.784;49.138;2023-02-10T21:25:55;17.60;;;4.27;;
67712;SDS011;67640;55.784;49.138;2023-02-10T21:31:16;12.95;;;4.50;;
67712;SDS011;67640;55.784;49.138;2023-02-10T21:41:47;18.07;;;4.78;;
67712;SDS011;67640;55.784;49.138;2023-02-10T21:47:04;11.43;;;4.17;;
67712;SDS011;67640;55.784;49.138;2023-02-10T21:52:10;17.32;;;4.62;;
67712;SDS011;67640;55.784;49.138;2023-02-10T21:57:15;17.97;;;5.63;;
67712;SDS011;67640;55.784;49.138;2023-02-10T22:02:34;13.98;;;4.40;;
67712;SDS011;67640;55.784;49.138;2023-02-10T22:07:53;14.83;;;5.07;;
67712;SDS011;67640;55.784;49.138;2023-02-10T22:13:13;15.45;;;5.83;;
67712;SDS011;67640;55.784;49.138;2023-02-10T22:18:18;23.70;;;5.87;;
67712;SDS011;67640;55.784;49.138;2023-02-10T22:23:35;13.70;;;3.65;;
67712;SDS011;67640;55.784;49.138;2023-02-10T22:28:40;17.10;;;4.30;;
67712;SDS011;67640;55.784;49.138;2023-02-10T22:33:48;14.25;;;4.65;;
67712;SDS011;67640;55.784;49.138;2023-02-10T22:39:05;15.83;;;4.83;;
67712;SDS011;67640;55.784;49.138;2023-02-10T22:44:11;18.73;;;5.13;;
67712;SDS011;67640;55.784;49.138;2023-02-10T22:49:17;15.53;;;4.25;;
67712;SDS011;67640;55.784;49.138;2023-02-10T22:54:22;16.67;;;4.87;;
67712;SDS011;67640;55.784;49.138;2023-02-10T22:59:39;16.30;;;4.97;;
67712;SDS011;67640;55.784;49.138;2023-02-10T23:04:44;16.50;;;5.00;;
67712;SDS011;67640;55.784;49.138;2023-02-10T23:09:49;14.70;;;4.58;;
67712;SDS011;67640;55.784;49.138;2023-02-10T23:15:09;15.45;;;5.10;;
67712;SDS011;67640;55.784;49.138;2023-02-10T23:20:28;15.58;;;5.22;;
67712;SDS011;67640;55.784;49.138;2023-02-10T23:25:48;17.67;;;5.13;;
67712;SDS011;67640;55.784;49.138;2023-02-10T23:30:53;15.03;;;4.60;;
67712;SDS011;67640;55.784;49.138;2023-02-10T23:35:58;19.52;;;5.08;;
67712;SDS011;67640;55.784;49.138;2023-02-10T23:41:04;18.67;;;5.87;;
67712;SDS011;67640;55.784;49.138;2023-02-10T23:46:21;18.77;;;5.45;;
67712;SDS011;67640;55.784;49.138;2023-02-10T23:51:27;20.75;;;5.20;;
67712;SDS011;67640;55.784;49.138;2023-02-10T23:56:32;18.77;;;5.00;;
